Latest Coastal Weather Observations for Roebourne Airport

IDW60701

Issued at 2:22 am WST Tuesday 27 January 2015 (issued every 10 minutes, with the page automatically refreshed every 10 minutes)

About coastal observations | Map of coastal stations | Coastal observations for WA | Marine services | Other Formats
Station Details ID: 004090 Name: ROEBOURNE AERO Lat: -20.76 Lon: 117.16 Height: 10.7 m
Data from the previous 72 hours. | See also: Recent months at Roebourne Airport
Date/Time
WST
Temp

°C
Wind Pressure Rain
since 9am
mm
Weather Cloud Vis
km
Sea
Height
m
Swell
Dir
 
Speed
knots
Gust
knots
hPa Trend Height
m
Period
s
Dir
27/02:00am 26.3 W 8 10 1005.9 - 0.0 - - - - - - -
27/01:30am 26.8 W 9 11 1006.1 - 0.0 - - - - - - -
27/01:00am 26.7 WNW 9 13 1006.3 - 0.0 - - - - - - -
27/12:30am 26.9 W 8 10 1006.4 - 0.0 - - - - - - -
27/12:00am 27.1 W 9 11 1006.3 - 0.0 - - - - - - -
 
Date/Time
WST
Temp

°C
Wind Pressure Rain
since 9am
mm
Weather Cloud Vis
km
Sea
Height
m
Swell
Dir
 
Speed
knots
Gust
knots
hPa Trend Height
m
Period
s
Dir
26/11:30pm 27.2 WNW 9 13 1006.5 - 0.0 - - - - - - -
26/11:00pm 27.7 WNW 10 13 1006.7 - 0.0 - - - - - - -
26/10:30pm 27.8 WNW 10 12 1006.6 - 0.0 - - - - - - -
26/10:00pm 27.6 W 11 13 1006.3 - 0.0 - - - - - - -
26/09:30pm 27.8 W 10 13 1006.2 - 0.0 - - - - - - -
26/09:00pm 28.0 W 11 14 1005.9 - 0.0 - - - - - - -
26/08:30pm 28.3 WNW 11 15 1005.7 - 0.0 - - - - - - -
26/08:00pm 28.4 WNW 12 15 1005.7 - 0.0 - - - - - - -
26/07:30pm 28.7 NW 12 15 1005.6 - 0.0 - - - - - - -
26/07:00pm 29.0 NW 12 16 1005.5 - 0.0 - - - - - - -
26/06:30pm 29.6 NNW 13 16 1005.2 - 0.0 - - - - - - -
26/06:00pm 30.3 NW 13 18 1005.1 - 0.0 - - - - - - -
26/05:30pm 31.1 NNW 14 19 1005.2 - 0.0 - - - - - - -
26/05:00pm 32.0 NNW 14 18 1005.1 - 0.0 - - - - - - -
26/04:30pm 31.1 N 14 18 1005.0 - 0.0 - - - - - - -
26/04:00pm 31.5 N 15 20 1005.0 - 0.0 - - - - - - -
26/03:30pm 32.3 NNW 14 19 1005.2 - 0.0 - - - - - - -
26/03:00pm 32.0 NNW 13 19 1005.3 - 0.0 - - - - - - -
26/02:30pm 32.4 NNW 13 19 1005.6 - 0.0 - - - - - - -
26/02:00pm 33.1 NNW 13 18 1005.6 - 0.0 - - - - - - -
26/01:30pm 32.4 NNW 13 19 1006.0 - 0.0 - - - - - - -
26/01:00pm 33.6 NNW 13 20 1006.0 - 0.0 - - - - - - -
26/12:30pm 33.2 N 12 17 1006.3 - 0.0 - - - - - - -
26/12:00pm 33.1 NNE 11 17 1006.7 - 0.0 - - - - - - -
26/11:30am 32.6 NNE 10 18 1007.1 - 0.0 - - - - - - -
26/11:00am 32.4 NNE 12 18 1007.5 - 0.0 - - - - - - -
26/10:30am 31.9 NNE 13 18 1007.5 - 0.0 - - - - - - -
26/10:00am 32.1 NE 12 18 1007.7 - 0.0 - - - - - - -
26/09:30am 31.3 NNE 13 16 1007.7 - 0.0 - - - - - - -
26/09:00am 31.1 NNE 9 14 1007.9 - 0.0 - - - - - - -
26/08:30am 29.2 NNE 8 10 1007.9 - 0.0 - - - - - - -
26/08:00am 29.1 NE 8 10 1007.9 - 0.0 - - - - - - -
26/07:30am 28.6 ENE 6 7 1007.8 - 0.0 - - - - - - -
26/07:00am 27.8 ENE 2 4 1007.6 - 0.0 - - - - - - -
26/06:30am 27.2 E 3 4 1007.6 - 0.0 - - - - - - -
26/06:00am 26.9 SE 6 8 1007.3 - 0.0 - - - - - - -
26/05:30am 26.9 SE 6 8 1006.9 - 0.0 - - - - - - -
26/05:00am 26.8 CALM 0 3 1005.9 - 0.0 - - - - - - -
26/04:30am 26.7 W 4 4 1005.4 - 0.0 - - - - - - -
26/04:00am 26.8 W 7 9 1005.2 - 0.0 - - - - - - -
26/03:30am 26.8 W 8 9 1005.0 - 0.0 - - - - - - -
26/03:00am 27.0 W 7 9 1005.1 - 0.0 - - - - - - -
26/02:30am 27.2 W 8 9 1005.3 - 0.0 - - - - - - -
26/02:00am 27.5 WNW 6 8 1005.6 - 0.0 - - - - - - -
26/01:30am 27.5 WNW 7 9 1005.7 - 0.0 - - - - - - -
26/01:00am 27.7 NW 7 9 1005.8 - 0.0 - - - - - - -
26/12:30am 27.9 NW 6 9 1005.8 - 0.0 - - - - - - -
26/12:00am 27.7 NW 6 9 1005.9 - 0.0 - - - - - - -
 
Date/Time
WST
Temp

°C
Wind Pressure Rain
since 9am
mm
Weather Cloud Vis
km
Sea
Height
m
Swell
Dir
 
Speed
knots
Gust
knots
hPa Trend Height
m
Period
s
Dir
25/11:30pm 28.0 NW 10 14 1005.8 - 0.0 - - - - - - -
25/11:00pm 28.0 NNW 11 15 1005.5 - 0.0 - - - - - - -
25/10:30pm 28.1 NNW 11 13 1005.9 - 0.0 - - - - - - -
25/10:00pm 28.3 NNW 9 11 1006.2 - 0.0 - - - - - - -
25/09:30pm 28.5 N 8 10 1006.5 - 0.0 - - - - - - -
25/09:00pm 28.8 N 9 11 1007.1 - 0.0 - - - - - - -
25/08:30pm 29.0 NE 7 8 1007.8 - 0.0 - - - - - - -
25/08:00pm 29.2 NE 5 6 1008.4 - 0.0 - - - - - - -
25/07:30pm 29.3 NNE 4 6 1008.1 - 0.0 - - - - - - -
25/07:00pm 29.5 N 9 11 1007.1 - 0.0 - - - - - - -
25/06:30pm 30.3 N 11 15 1006.8 - 0.0 - - - - - - -
25/06:00pm 30.9 NNW 12 16 1006.7 - 0.0 - - - - - - -
25/05:30pm 31.5 N 13 17 1006.1 - 0.0 - - - - - - -
25/05:00pm 32.4 N 14 18 1006.0 - 0.0 - - - - - - -
25/04:30pm 32.6 NNW 14 19 1005.5 - 0.0 - - - - - - -
25/04:00pm 33.5 NNW 15 19 1005.1 - 0.0 - - - - - - -
25/03:30pm 34.2 N 16 23 1005.3 - 0.0 - - - - - - -
25/03:00pm 34.9 N 16 21 1005.6 - 0.0 - - - - - - -
25/02:30pm 34.4 NNE 17 23 1006.3 - 0.0 - - - - - - -
25/02:00pm 35.2 NNE 14 22 1006.4 - 0.0 - - - - - - -
25/01:30pm 34.9 NNE 16 22 1006.6 - 0.0 - - - - - - -
25/01:00pm 34.3 N 16 21 1006.7 - 0.0 - - - - - - -
25/12:30pm 34.6 NNE 17 24 1007.2 - 0.0 - - - - - - -
25/12:00pm 33.9 NNE 17 21 1007.5 - 0.0 - - - - - - -
25/11:30am 32.5 NNE 18 25 1008.1 - 0.0 - - - - - - -
25/11:00am 31.8 NNE 17 22 1008.2 - 0.0 - - - - - - -
25/10:30am 32.7 NNE 12 15 1007.8 - 0.0 - - - - - - -
25/10:00am 33.2 NNE 8 12 1007.3 - 0.0 - - - - - - -
25/09:30am 32.7 NW 5 8 1006.6 - 0.0 - - - - - - -
25/09:00am 32.3 WNW 6 10 1006.4 - 0.0 - - - - - - -
25/08:30am 31.7 WNW 5 10 1006.5 - 0.0 - - - - - - -
25/08:00am 29.9 WNW 7 9 1006.8 - 0.0 - - - - - - -
25/07:30am 29.4 NNW 8 10 1006.3 - 0.0 - - - - - - -
25/07:00am 29.0 NNW 8 10 1006.0 - 0.0 - - - - - - -
25/06:30am 29.0 NW 7 9 1005.4 - 0.0 - - - - - - -
25/06:00am 29.3 NW 6 7 1005.0 - 0.0 - - - - - - -
25/05:30am 29.3 NW 6 7 1004.6 - 0.0 - - - - - - -
25/05:00am 29.3 NW 6 9 1004.2 - 0.0 - - - - - - -
25/04:30am 29.6 WNW 7 9 1004.3 - 0.0 - - - - - - -
25/04:00am 29.8 WNW 9 13 1003.9 - 0.0 - - - - - - -
25/03:30am 30.0 W 9 11 1003.7 - 0.0 - - - - - - -
25/03:00am 30.2 W 9 12 1003.5 - 0.0 - - - - - - -
25/02:30am 30.0 W 12 15 1003.2 - 0.0 - - - - - - -
25/02:00am 30.6 W 8 11 1003.4 - 0.0 - - - - - - -
25/01:30am 31.1 WNW 11 14 1003.4 - 0.0 - - - - - - -
25/01:00am 31.4 NNW 9 11 1003.6 - 0.0 - - - - - - -
25/12:30am 30.6 NNW 14 19 1004.0 - 0.0 - - - - - - -
25/12:00am 30.6 NW 14 19 1004.7 - 0.0 - - - - - - -
 
Date/Time
WST
Temp

°C
Wind Pressure Rain
since 9am
mm
Weather Cloud Vis
km
Sea
Height
m
Swell
Dir
 
Speed
knots
Gust
knots
hPa Trend Height
m
Period
s
Dir
24/11:30pm 31.4 NNW 12 15 1005.0 - 0.0 - - - - - - -
24/11:00pm 31.8 N 8 10 1005.5 - 0.0 - - - - - - -
24/10:30pm 32.4 NNE 8 10 1005.6 - 0.0 - - - - - - -
24/10:00pm 32.8 WNW 6 8 1005.3 - 0.0 - - - - - - -
24/09:30pm 32.5 WSW 7 10 1005.6 - 0.0 - - - - - - -
24/09:00pm 32.3 WNW 11 15 1004.4 - 0.0 - - - - - - -
24/08:30pm 32.7 WNW 13 16 1004.3 - 0.0 - - - - - - -
24/08:00pm 33.5 WNW 13 17 1004.1 - 0.0 - - - - - - -
24/07:30pm 34.7 WNW 13 18 1003.9 - 0.0 - - - - - - -
24/07:00pm 35.0 WNW 15 19 1003.3 - 0.0 - - - - - - -
24/06:30pm 35.8 WNW 15 19 1003.2 - 0.0 - - - - - - -
24/06:00pm 36.4 NW 13 16 1003.2 - 0.0 - - - - - - -
24/05:30pm 36.8 NW 15 20 1002.6 - 0.0 - - - - - - -
24/05:00pm 36.2 WNW 16 21 1002.6 - 0.0 - - - - - - -
24/04:30pm 37.4 NW 14 18 1002.7 - 0.0 - - - - - - -
24/04:00pm 37.6 NW 17 21 1002.4 - 0.0 - - - - - - -
24/03:30pm 37.9 NW 16 20 1002.6 - 0.0 - - - - - - -
24/03:00pm 38.4 NNW 17 21 1002.8 - 0.0 - - - - - - -
24/02:30pm 40.9 NNW 17 21 1003.0 - 0.0 - - - - - - -
24/02:00pm 40.6 NNW 17 21 1003.2 - 0.0 - - - - - - -
24/01:30pm 40.1 N 16 20 1003.3 - 0.0 - - - - - - -
24/01:00pm 41.3 N 15 18 1003.7 - 0.0 - - - - - - -
24/12:30pm 39.4 NNW 12 17 1004.2 - 0.0 - - - - - - -
24/12:00pm 41.0 N 11 14 1004.5 - 0.0 - - - - - - -
24/11:30am 39.7 N 10 14 1004.9 - 0.0 - - - - - - -
24/11:00am 41.2 NNW 5 8 1005.3 - 0.0 - - - - - - -
24/10:30am 39.4 NNE 7 12 1005.8 - 0.0 - - - - - - -
24/10:00am 39.2 NNE 9 13 1006.0 - 0.0 - - - - - - -
24/09:30am 39.5 NE 10 14 1006.2 - 0.0 - - - - - - -
24/09:00am 39.1 ENE 9 12 1006.2 - 0.0 - - - - - - -
24/08:30am 38.2 ENE 11 16 1006.0 - 0.0 - - - - - - -
24/08:00am 36.9 NE 11 14 1005.4 - 0.0 - - - - - - -
24/07:30am 34.4 CALM 0 0 1005.5 - 0.0 - - - - - - -
24/07:00am 30.6 CALM 0 0 1005.6 - 0.0 - - - - - - -
24/06:30am 29.9 WSW 5 6 1005.5 - 0.0 - - - - - - -
24/06:00am 30.6 N 3 5 1005.0 - 0.0 - - - - - - -
24/05:30am 31.2 NNE 4 6 1004.7 - 0.0 - - - - - - -
24/05:00am 31.9 NNE 7 10 1004.2 - 0.0 - - - - - - -
24/04:30am 32.9 N 9 12 1003.5 - 0.0 - - - - - - -
24/04:00am 33.7 NNE 7 12 1003.3 - 0.0 - - - - - - -
24/03:30am 33.8 W 10 13 1002.1 - 0.0 - - - - - - -
24/03:00am 33.3 SW 5 7 1002.0 - 0.0 - - - - - - -
24/02:30am 33.6 SSW 9 12 1002.1 - 0.0 - - - - - - -

Other Formats:

Comma delimited format used in spreadsheet applications
http://www.bom.gov.au/fwo/IDW60701/IDW60701.94308.axf

JavaScript Object Notation format (JSON) in row-major order
http://www.bom.gov.au/fwo/IDW60701/IDW60701.94308.json